Time;durP1;ratioP1;P1;durP2;ratioP2;P2;SDS_P1;SDS_P2;PMS_P1;PMS_P2;Temp;Humidity;BMP_temperature;BMP_pressure;BME280_temperature;BME280_humidity;BME280_pressure;Samples;Min_cycle;Max_cycle;Signal;HPM_P1;HPM_P2
2023/05/07 00:02:22;;;;;;;9.57;7.27;;;13.80;99.90;;;;;;5073996;28;20487;-67
2023/05/07 00:04:51;;;;;;;8.50;7.70;;;13.70;99.90;;;;;;5074129;28;20488;-67
2023/05/07 00:07:20;;;;;;;9.63;6.97;;;13.60;99.90;;;;;;5074071;28;20444;-67
2023/05/07 00:09:47;;;;;;;13.33;8.23;;;13.60;99.90;;;;;;5073846;28;20535;-67
2023/05/07 00:12:14;;;;;;;7.93;7.13;;;13.60;99.90;;;;;;5074104;28;20471;-67
2023/05/07 00:14:41;;;;;;;9.70;6.83;;;13.60;99.90;;;;;;5073800;28;20475;-67
2023/05/07 00:17:08;;;;;;;8.17;6.80;;;13.60;99.90;;;;;;5073637;28;20503;-67
2023/05/07 00:19:37;;;;;;;8.60;6.80;;;13.60;99.90;;;;;;5073622;28;20923;-66
2023/05/07 00:22:04;;;;;;;9.70;6.70;;;13.50;99.90;;;;;;5074092;28;20448;-67
2023/05/07 00:24:31;;;;;;;9.50;7.73;;;13.50;99.90;;;;;;5073505;28;20507;-67
2023/05/07 00:27:00;;;;;;;9.20;6.90;;;13.40;99.90;;;;;;5073537;28;20872;-67
2023/05/07 00:29:28;;;;;;;10.53;7.73;;;13.30;99.90;;;;;;5073729;28;20444;-67
2023/05/07 00:31:55;;;;;;;12.57;9.20;;;13.30;99.90;;;;;;5073586;28;20472;-67
2023/05/07 00:34:22;;;;;;;8.53;7.63;;;13.30;99.90;;;;;;5073792;28;20436;-67
2023/05/07 00:36:56;;;;;;;8.47;7.63;;;13.20;99.90;;;;;;5073307;28;20462;-66
2023/05/07 00:39:23;;;;;;;10.20;7.30;;;13.30;99.90;;;;;;5073179;28;20471;-66
2023/05/07 00:41:52;;;;;;;9.73;7.17;;;13.20;99.90;;;;;;5073637;28;20840;-67
2023/05/07 00:44:20;;;;;;;9.67;6.93;;;13.20;99.90;;;;;;5073055;28;20988;-67
2023/05/07 00:46:49;;;;;;;8.40;7.03;;;13.20;99.90;;;;;;5073178;28;20501;-67
2023/05/07 00:49:19;;;;;;;9.60;6.93;;;13.20;99.90;;;;;;5072891;28;20511;-67
2023/05/07 00:51:46;;;;;;;7.17;5.77;;;13.20;99.90;;;;;;5073479;28;20868;-67
2023/05/07 00:54:15;;;;;;;7.77;5.53;;;13.20;99.90;;;;;;5073395;28;20847;-67
2023/05/07 00:56:42;;;;;;;7.13;6.30;;;13.20;99.90;;;;;;5073376;28;20479;-67
2023/05/07 00:59:11;;;;;;;8.53;6.90;;;13.20;99.90;;;;;;5073220;28;20527;-66
2023/05/07 01:01:43;;;;;;;7.23;6.40;;;13.20;99.90;;;;;;5072824;28;20988;-67
2023/05/07 01:04:10;;;;;;;7.67;5.33;;;13.20;99.90;;;;;;5072665;28;20518;-66
2023/05/07 01:06:38;;;;;;;6.63;5.93;;;13.20;99.90;;;;;;5072780;28;20515;-66
2023/05/07 01:09:05;;;;;;;6.30;5.43;;;13.30;99.90;;;;;;5072867;28;20436;-66
2023/05/07 01:11:34;;;;;;;8.20;6.30;;;13.30;99.90;;;;;;5072985;28;20428;-66
2023/05/07 01:14:01;;;;;;;6.80;6.10;;;13.30;99.90;;;;;;5073013;28;20464;-67
2023/05/07 01:16:28;;;;;;;7.23;6.53;;;13.30;99.90;;;;;;5072546;28;20436;-67
2023/05/07 01:18:58;;;;;;;6.50;5.90;;;13.30;99.90;;;;;;5073098;28;20440;-66
2023/05/07 01:21:27;;;;;;;6.33;5.73;;;13.30;99.90;;;;;;5073001;28;20458;-67
2023/05/07 01:23:56;;;;;;;8.57;7.77;;;13.20;99.90;;;;;;5073261;28;20535;-67
2023/05/07 01:26:24;;;;;;;9.00;6.90;;;13.20;99.90;;;;;;5072769;28;20515;-67
2023/05/07 01:28:52;;;;;;;7.70;6.40;;;13.20;99.90;;;;;;5073219;28;20519;-67
2023/05/07 01:31:21;;;;;;;7.27;6.57;;;13.20;99.90;;;;;;5073084;28;20475;-67
2023/05/07 01:33:50;;;;;;;6.93;6.30;;;13.20;99.90;;;;;;5072400;28;20444;-67
2023/05/07 01:36:19;;;;;;;7.00;6.30;;;13.10;99.90;;;;;;5072606;28;20468;-67
2023/05/07 01:38:46;;;;;;;6.50;5.70;;;13.10;99.90;;;;;;5072375;28;20436;-67
2023/05/07 01:41:15;;;;;;;6.47;5.50;;;13.10;99.90;;;;;;5072543;28;20559;-67
2023/05/07 01:43:43;;;;;;;8.13;5.93;;;13.10;99.90;;;;;;5072208;28;20472;-67
2023/05/07 01:46:11;;;;;;;8.43;5.90;;;13.10;99.90;;;;;;5072175;28;20566;-67
2023/05/07 01:48:39;;;;;;;6.40;5.13;;;13.10;99.90;;;;;;5072628;28;20466;-66
2023/05/07 01:51:07;;;;;;;5.67;5.10;;;13.00;99.90;;;;;;5072705;28;20443;-67
2023/05/07 01:53:39;;;;;;;7.50;6.20;;;13.00;99.90;;;;;;5072846;28;20546;-67
2023/05/07 01:56:06;;;;;;;7.23;4.97;;;13.00;99.90;;;;;;5072267;28;20935;-66
2023/05/07 01:58:35;;;;;;;7.03;6.33;;;12.90;99.90;;;;;;5072294;28;20491;-67
2023/05/07 02:01:02;;;;;;;9.00;5.80;;;12.90;99.90;;;;;;5072669;28;20444;-66
2023/05/07 02:03:29;;;;;;;6.70;6.00;;;12.80;99.90;;;;;;5072549;28;20471;-67
2023/05/07 02:05:56;;;;;;;10.60;6.07;;;12.80;99.90;;;;;;5072431;28;20491;-66
2023/05/07 02:08:28;;;;;;;8.43;5.87;;;12.70;99.90;;;;;;5072240;28;20534;-66
2023/05/07 02:10:55;;;;;;;6.97;5.43;;;12.70;99.90;;;;;;5072722;28;20435;-66
2023/05/07 02:13:24;;;;;;;8.60;5.97;;;12.70;99.90;;;;;;5072273;28;20490;-66
2023/05/07 02:15:53;;;;;;;6.00;5.40;;;12.70;99.90;;;;;;5073740;28;20447;-67
2023/05/07 02:18:20;;;;;;;6.17;5.50;;;12.70;99.90;;;;;;5075653;28;20472;-66
2023/05/07 02:20:47;;;;;;;6.50;5.67;;;12.60;99.90;;;;;;5076082;28;20486;-66
2023/05/07 02:23:14;;;;;;;6.43;5.07;;;12.60;99.90;;;;;;5076343;28;20501;-66
2023/05/07 02:25:41;;;;;;;6.00;5.23;;;12.60;99.90;;;;;;5075693;28;21051;-66
2023/05/07 02:28:13;;;;;;;5.97;4.90;;;12.60;99.90;;;;;;5075996;28;20914;-67
2023/05/07 02:30:43;;;;;;;8.27;5.73;;;12.60;99.90;;;;;;5075696;28;20791;-66
2023/05/07 02:33:12;;;;;;;7.50;5.90;;;12.60;99.90;;;;;;5075811;28;20471;-66
2023/05/07 02:35:41;;;;;;;6.63;5.80;;;12.50;99.90;;;;;;5075627;28;20447;-66
2023/05/07 02:38:10;;;;;;;9.33;6.60;;;12.50;99.90;;;;;;5075596;28;20522;-66
2023/05/07 02:40:39;;;;;;;7.20;6.40;;;12.50;99.90;;;;;;5075871;28;20514;-67
2023/05/07 02:43:06;;;;;;;9.40;6.27;;;12.50;99.90;;;;;;5075847;28;20482;-67
2023/05/07 02:45:33;;;;;;;10.27;6.97;;;12.50;99.90;;;;;;5075376;28;20558;-66
2023/05/07 02:48:00;;;;;;;7.68;6.55;;;12.40;99.90;;;;;;5075869;28;20490;-66
2023/05/07 02:50:30;;;;;;;7.70;6.33;;;12.40;99.90;;;;;;5075651;28;20185;-66
2023/05/07 02:52:57;;;;;;;6.40;5.77;;;12.40;99.90;;;;;;5075590;28;20439;-66
2023/05/07 02:55:24;;;;;;;7.13;5.67;;;12.40;99.90;;;;;;5075821;28;20450;-67
2023/05/07 02:57:51;;;;;;;7.73;6.97;;;12.40;99.90;;;;;;5075668;28;20519;-66
2023/05/07 03:00:20;;;;;;;7.50;6.70;;;12.40;99.90;;;;;;5075569;28;20494;-66
2023/05/07 03:02:47;;;;;;;7.20;6.50;;;12.40;99.90;;;;;;5075291;28;20440;-66
2023/05/07 03:05:14;;;;;;;5.93;5.13;;;12.30;99.90;;;;;;5075249;28;20435;-67
2023/05/07 03:07:47;;;;;;;5.37;4.87;;;12.30;99.90;;;;;;5075341;28;20462;-66
2023/05/07 03:10:14;;;;;;;6.78;5.38;;;12.30;99.90;;;;;;5075509;28;20471;-67
2023/05/07 03:12:41;;;;;;;6.75;5.53;;;12.30;99.90;;;;;;5075176;28;20280;-66
2023/05/07 03:15:10;;;;;;;5.20;4.70;;;12.30;99.90;;;;;;5075214;28;20232;-67
2023/05/07 03:17:37;;;;;;;6.88;5.60;;;12.20;99.90;;;;;;5074676;28;20468;-66
2023/05/07 03:20:05;;;;;;;6.90;5.40;;;12.20;99.90;;;;;;5075220;28;20224;-66
2023/05/07 03:22:32;;;;;;;6.80;5.40;;;12.20;99.90;;;;;;5074653;28;20954;-66
2023/05/07 03:25:00;;;;;;;6.93;5.80;;;12.10;99.90;;;;;;5074969;28;20844;-66
2023/05/07 03:27:27;;;;;;;6.35;4.90;;;12.10;99.90;;;;;;5073784;28;20491;-67
2023/05/07 03:29:54;;;;;;;6.30;4.83;;;12.10;99.90;;;;;;5074741;28;20240;-66
2023/05/07 03:32:26;;;;;;;5.70;4.40;;;12.10;99.90;;;;;;5074863;28;20493;-66
2023/05/07 03:34:55;;;;;;;6.67;5.37;;;12.10;99.90;;;;;;5075010;28;20486;-67
2023/05/07 03:37:24;;;;;;;4.72;4.22;;;12.10;99.90;;;;;;5074920;28;20771;-67
2023/05/07 03:39:51;;;;;;;5.30;4.23;;;12.10;99.90;;;;;;5074720;28;20668;-66
2023/05/07 03:42:20;;;;;;;5.25;4.75;;;12.00;99.90;;;;;;5074936;28;20432;-67
2023/05/07 03:44:47;;;;;;;4.80;4.15;;;12.00;99.90;;;;;;5074408;28;20225;-66
2023/05/07 03:47:14;;;;;;;5.78;4.68;;;12.00;99.90;;;;;;5074739;28;20217;-67
2023/05/07 03:49:42;;;;;;;6.65;5.15;;;11.90;99.90;;;;;;5074442;28;20194;-67
2023/05/07 03:52:11;;;;;;;6.30;5.05;;;11.90;99.90;;;;;;5074486;28;20277;-66
2023/05/07 03:54:38;;;;;;;6.90;3.25;;;11.90;99.90;;;;;;5074526;28;20225;-66
2023/05/07 03:57:09;;;;;;;3.38;2.50;;;11.90;99.90;;;;;;5074440;28;20253;-66
2023/05/07 03:59:38;;;;;;;3.22;2.75;;;11.90;99.90;;;;;;5074342;28;20193;-67
2023/05/07 04:02:07;;;;;;;4.75;3.58;;;11.80;99.90;;;;;;5074362;28;20284;-66
2023/05/07 04:04:34;;;;;;;4.10;3.40;;;11.80;99.90;;;;;;5074454;28;20190;-66
2023/05/07 04:07:01;;;;;;;5.85;5.03;;;11.70;99.90;;;;;;5074271;28;20298;-66
2023/05/07 04:09:28;;;;;;;5.00;4.50;;;11.70;99.90;;;;;;5073926;28;20735;-66
2023/05/07 04:11:57;;;;;;;13.45;5.43;;;11.70;99.90;;;;;;5074757;28;20193;-66
2023/05/07 04:14:24;;;;;;;5.22;4.45;;;11.80;99.90;;;;;;5073948;28;20280;-66
2023/05/07 04:16:52;;;;;;;6.07;4.50;;;11.70;99.90;;;;;;5073546;28;20745;-66
2023/05/07 04:19:21;;;;;;;5.72;4.03;;;11.70;99.90;;;;;;5073928;28;20202;-66
2023/05/07 04:21:48;;;;;;;5.47;4.85;;;11.70;99.90;;;;;;5074092;28;20225;-66
2023/05/07 04:24:20;;;;;;;5.10;4.60;;;11.70;99.90;;;;;;5073982;28;20248;-66
2023/05/07 04:26:47;;;;;;;6.32;5.32;;;11.70;99.90;;;;;;5074234;28;20257;-66
2023/05/07 04:29:14;;;;;;;8.00;6.32;;;11.70;99.90;;;;;;5074689;28;20704;-66
2023/05/07 04:31:44;;;;;;;7.55;5.53;;;11.70;99.90;;;;;;5073799;28;20193;-67
2023/05/07 04:34:12;;;;;;;7.50;5.75;;;11.70;99.90;;;;;;5074561;28;20529;-66
2023/05/07 04:36:43;;;;;;;6.25;5.65;;;11.80;99.90;;;;;;5074163;28;20197;-66
2023/05/07 04:39:10;;;;;;;6.47;5.85;;;11.80;99.90;;;;;;5073705;28;20544;-66
2023/05/07 04:41:37;;;;;;;7.53;5.05;;;11.90;99.90;;;;;;5073683;28;20200;-66
2023/05/07 04:44:07;;;;;;;5.88;5.00;;;11.90;99.90;;;;;;5073534;28;20552;-67
2023/05/07 04:46:34;;;;;;;5.75;5.07;;;11.90;99.90;;;;;;5073123;28;20304;-67
2023/05/07 04:49:01;;;;;;;8.00;5.05;;;11.90;99.90;;;;;;5073540;28;20190;-66
2023/05/07 04:51:29;;;;;;;8.52;6.00;;;12.00;99.90;;;;;;5073476;28;20229;-66
2023/05/07 04:53:56;;;;;;;6.82;5.90;;;12.00;99.90;;;;;;5073148;28;20617;-66
2023/05/07 04:56:23;;;;;;;7.57;5.63;;;12.00;99.90;;;;;;5073246;28;20697;-66
2023/05/07 04:58:50;;;;;;;6.63;5.10;;;12.10;99.90;;;;;;5073532;28;20193;-67
2023/05/07 05:01:17;;;;;;;11.80;5.23;;;12.20;99.90;;;;;;5073061;28;20620;-66
2023/05/07 05:03:44;;;;;;;6.03;5.43;;;12.30;99.90;;;;;;5073174;28;20471;-66
2023/05/07 05:06:12;;;;;;;10.32;6.75;;;12.30;99.90;;;;;;5072943;28;20263;-66
2023/05/07 05:08:40;;;;;;;7.43;6.63;;;12.30;99.90;;;;;;5073463;28;20190;-66
2023/05/07 05:11:07;;;;;;;9.40;6.13;;;12.40;99.90;;;;;;5073154;28;20262;-66
2023/05/07 05:13:34;;;;;;;6.53;5.43;;;12.50;99.90;;;;;;5073129;28;20494;-67
2023/05/07 05:16:01;;;;;;;7.30;6.03;;;12.60;99.90;;;;;;5073152;28;20440;-66
2023/05/07 05:18:34;;;;;;;6.70;6.00;;;12.60;99.90;;;;;;5073020;28;20467;-67
2023/05/07 05:21:01;;;;;;;6.17;5.40;;;12.70;99.90;;;;;;5072615;28;20480;-66
2023/05/07 05:23:28;;;;;;;6.80;5.67;;;12.80;99.90;;;;;;5072807;28;20440;-66
2023/05/07 05:25:58;;;;;;;6.10;5.50;;;12.90;99.90;;;;;;5072812;28;20602;-66
2023/05/07 05:28:25;;;;;;;7.40;6.60;;;12.90;99.90;;;;;;5073383;28;20448;-66
2023/05/07 05:30:52;;;;;;;9.37;7.37;;;13.10;99.90;;;;;;5073177;28;20472;-67
2023/05/07 05:33:19;;;;;;;8.43;6.30;;;13.20;99.90;;;;;;5072607;28;21000;-66
2023/05/07 05:35:46;;;;;;;8.83;6.37;;;13.30;99.90;;;;;;5073058;28;20444;-67
2023/05/07 05:38:14;;;;;;;6.67;5.73;;;13.40;99.90;;;;;;5072992;28;20470;-67
2023/05/07 05:40:41;;;;;;;8.70;6.70;;;13.50;99.90;;;;;;5073076;28;20501;-67
2023/05/07 05:43:09;;;;;;;8.10;6.33;;;13.60;99.90;;;;;;5072882;28;20466;-67
2023/05/07 05:45:36;;;;;;;6.47;5.83;;;13.70;99.90;;;;;;5072825;28;20443;-66
2023/05/07 05:48:03;;;;;;;6.13;5.53;;;13.80;99.90;;;;;;5072625;28;20541;-67
2023/05/07 05:50:30;;;;;;;7.80;5.33;;;13.90;99.90;;;;;;5072198;28;20511;-67
2023/05/07 05:52:57;;;;;;;8.57;5.97;;;14.00;99.90;;;;;;5072706;28;20964;-67
2023/05/07 05:55:24;;;;;;;6.73;4.83;;;14.20;99.90;;;;;;5072347;28;21009;-67
2023/05/07 05:57:51;;;;;;;7.93;5.90;;;14.30;99.90;;;;;;5072505;28;20494;-67
2023/05/07 06:00:22;;;;;;;8.13;5.70;;;14.30;99.90;;;;;;5072499;28;20522;-67
2023/05/07 06:02:49;;;;;;;6.70;5.80;;;14.50;99.90;;;;;;5072718;28;21262;-67
2023/05/07 06:05:16;;;;;;;7.00;5.00;;;14.60;99.90;;;;;;5072485;28;20467;-67
2023/05/07 06:07:43;;;;;;;5.73;4.80;;;14.80;99.90;;;;;;5072629;28;20480;-67
2023/05/07 06:10:13;;;;;;;6.87;5.37;;;15.00;99.90;;;;;;5072106;28;20944;-67
2023/05/07 06:12:40;;;;;;;6.23;5.10;;;15.10;99.90;;;;;;5072306;28;20472;-67
2023/05/07 06:15:08;;;;;;;6.13;4.43;;;15.20;99.90;;;;;;5072387;28;20475;-67
2023/05/07 06:17:36;;;;;;;7.03;6.33;;;15.40;99.90;;;;;;5072183;28;20544;-67
2023/05/07 06:20:04;;;;;;;13.53;6.43;;;15.40;99.90;;;;;;5072316;28;20466;-67
2023/05/07 06:22:31;;;;;;;6.93;5.60;;;15.60;99.40;;;;;;5072441;28;20449;-67
2023/05/07 06:24:58;;;;;;;6.07;4.20;;;15.70;98.60;;;;;;5072659;28;20475;-67
2023/05/07 06:27:25;;;;;;;5.20;3.97;;;15.80;98.30;;;;;;5072230;28;20566;-67
2023/05/07 06:29:52;;;;;;;4.63;3.77;;;15.90;97.50;;;;;;5072446;28;20440;-67
2023/05/07 06:32:20;;;;;;;4.40;3.70;;;16.00;97.50;;;;;;5071916;28;21022;-67
2023/05/07 06:34:48;;;;;;;3.80;3.30;;;16.20;96.70;;;;;;5072014;28;20489;-67
2023/05/07 06:37:15;;;;;;;4.53;3.87;;;16.20;95.90;;;;;;5071968;28;20432;-67
2023/05/07 06:39:42;;;;;;;6.40;3.27;;;16.30;95.60;;;;;;5072168;28;20436;-67
2023/05/07 06:42:09;;;;;;;8.30;3.53;;;16.40;95.20;;;;;;5072107;28;20483;-67
2023/05/07 06:44:36;;;;;;;3.83;3.43;;;16.50;95.20;;;;;;5072354;28;20444;-67
2023/05/07 06:47:05;;;;;;;4.10;3.70;;;16.60;95.10;;;;;;5071516;28;21062;-67
2023/05/07 06:49:34;;;;;;;4.10;3.43;;;16.70;95.70;;;;;;5072640;28;20432;-67
2023/05/07 06:52:03;;;;;;;6.33;3.40;;;16.90;95.80;;;;;;5072384;28;20531;-67
2023/05/07 06:54:30;;;;;;;4.33;2.97;;;17.20;94.90;;;;;;5072348;28;20475;-67
2023/05/07 06:56:57;;;;;;;4.63;3.17;;;17.40;94.30;;;;;;5072412;28;20805;-67
2023/05/07 06:59:25;;;;;;;4.20;3.10;;;17.50;93.70;;;;;;5072472;28;20471;-67
2023/05/07 07:01:52;;;;;;;3.77;2.53;;;17.70;93.00;;;;;;5073546;28;20478;-67
2023/05/07 07:04:22;;;;;;;3.70;3.10;;;17.70;92.50;;;;;;5075767;28;20435;-67
2023/05/07 07:06:53;;;;;;;3.80;2.90;;;17.80;92.40;;;;;;5075399;28;20524;-67
2023/05/07 07:09:26;;;;;;;6.10;3.50;;;18.00;92.50;;;;;;5075798;28;20440;-67
2023/05/07 07:11:53;;;;;;;4.17;2.90;;;18.20;92.70;;;;;;5075486;28;20480;-67
2023/05/07 07:14:20;;;;;;;4.10;3.10;;;18.40;92.60;;;;;;5075347;28;20518;-67
2023/05/07 07:16:47;;;;;;;4.50;3.20;;;18.60;92.70;;;;;;5075272;28;20467;-67
2023/05/07 07:19:15;;;;;;;5.57;3.00;;;18.80;92.00;;;;;;5075700;28;20462;-67
2023/05/07 07:21:45;;;;;;;3.97;2.73;;;19.00;91.20;;;;;;5075374;28;20456;-67
2023/05/07 07:24:20;;;;;;;5.80;3.33;;;19.10;90.80;;;;;;5075316;28;20531;-67
2023/05/07 07:26:49;;;;;;;4.27;3.63;;;19.40;90.10;;;;;;5075427;28;20482;-67
2023/05/07 07:29:16;;;;;;;6.07;3.10;;;19.60;86.80;;;;;;5075656;28;20432;-67
2023/05/07 07:31:43;;;;;;;5.50;3.23;;;19.80;87.50;;;;;;5075421;28;20472;-67
2023/05/07 07:34:10;;;;;;;4.10;2.93;;;19.90;87.90;;;;;;5075608;28;20471;-67
2023/05/07 07:36:43;;;;;;;4.33;3.40;;;20.10;86.70;;;;;;5075153;28;20527;-68
2023/05/07 07:39:12;;;;;;;3.70;2.77;;;20.30;86.60;;;;;;5075111;28;20467;-68
2023/05/07 07:41:39;;;;;;;6.23;3.03;;;20.40;84.20;;;;;;5075158;28;20435;-67
2023/05/07 07:44:08;;;;;;;4.37;3.00;;;20.60;82.20;;;;;;5075080;28;20523;-68
2023/05/07 07:46:39;;;;;;;4.00;2.70;;;20.80;81.10;;;;;;5074877;28;20446;-67
2023/05/07 07:49:06;;;;;;;3.40;2.63;;;21.00;80.50;;;;;;5074898;28;20499;-67
2023/05/07 07:51:33;;;;;;;3.43;2.70;;;21.10;77.30;;;;;;5074937;28;20512;-68
2023/05/07 07:54:02;;;;;;;5.37;2.70;;;21.30;79.00;;;;;;5075093;28;20847;-68
2023/05/07 07:56:29;;;;;;;6.30;3.30;;;21.50;79.10;;;;;;5074780;28;20436;-67
2023/05/07 07:58:56;;;;;;;3.70;3.00;;;21.70;80.00;;;;;;5074709;28;20436;-68
2023/05/07 08:01:25;;;;;;;3.00;2.50;;;21.90;78.40;;;;;;5074828;28;20486;-68
2023/05/07 08:03:53;;;;;;;3.50;2.27;;;22.10;77.10;;;;;;5074796;28;20486;-67
2023/05/07 08:06:20;;;;;;;4.10;2.63;;;22.30;75.90;;;;;;5074487;28;20513;-67
2023/05/07 08:08:47;;;;;;;5.73;2.80;;;22.50;75.20;;;;;;5074778;28;20491;-68
2023/05/07 08:11:18;;;;;;;4.73;2.53;;;22.70;75.10;;;;;;5074439;28;20951;-67
2023/05/07 08:13:45;;;;;;;7.80;2.67;;;22.90;73.70;;;;;;5073829;28;20519;-67
2023/05/07 08:16:16;;;;;;;7.10;2.50;;;23.00;71.70;;;;;;5074240;28;20519;-67
2023/05/07 08:18:44;;;;;;;3.87;2.30;;;23.20;71.70;;;;;;5074217;28;20436;-68
2023/05/07 08:21:13;;;;;;;5.17;2.70;;;23.30;70.80;;;;;;5073718;28;20443;-67
2023/05/07 08:23:40;;;;;;;4.47;3.00;;;23.40;69.50;;;;;;5073885;28;20471;-67
2023/05/07 08:26:12;;;;;;;3.47;2.40;;;23.50;70.50;;;;;;5074052;28;20523;-66
2023/05/07 08:28:40;;;;;;;4.80;2.50;;;23.70;69.90;;;;;;5073616;28;20915;-67
2023/05/07 08:31:07;;;;;;;3.00;2.23;;;23.90;68.90;;;;;;5073509;28;20436;-67
2023/05/07 08:33:34;;;;;;;3.87;2.57;;;24.00;65.00;;;;;;5073841;28;20435;-67
2023/05/07 08:36:02;;;;;;;3.63;2.13;;;24.10;65.90;;;;;;5073984;28;20431;-67
2023/05/07 08:38:30;;;;;;;3.03;2.30;;;24.30;65.80;;;;;;5074018;28;20882;-67
2023/05/07 08:40:57;;;;;;;3.77;2.77;;;24.50;65.30;;;;;;5073610;28;20436;-66
2023/05/07 08:43:28;;;;;;;3.30;2.67;;;24.70;63.50;;;;;;5073425;28;20531;-66
2023/05/07 08:46:02;;;;;;;6.30;2.30;;;24.80;61.20;;;;;;5074035;28;20466;-66
2023/05/07 08:48:31;;;;;;;4.03;2.40;;;24.90;59.50;;;;;;5073603;28;21031;-67
2023/05/07 08:50:59;;;;;;;3.57;2.00;;;25.10;60.20;;;;;;5073126;28;20559;-67
2023/05/07 08:53:28;;;;;;;3.63;1.80;;;25.30;61.30;;;;;;5073097;28;20448;-67
2023/05/07 08:55:57;;;;;;;3.63;2.60;;;25.50;60.40;;;;;;5073236;28;20472;-67
2023/05/07 08:58:24;;;;;;;2.87;2.20;;;25.70;56.50;;;;;;5073336;28;20792;-67
2023/05/07 09:00:53;;;;;;;3.13;2.20;;;25.90;56.00;;;;;;5073498;28;20497;-67
2023/05/07 09:03:23;;;;;;;3.83;2.10;;;26.10;57.70;;;;;;5073226;28;20531;-66
2023/05/07 09:05:50;;;;;;;3.40;2.23;;;26.20;55.60;;;;;;5073410;28;20577;-67
2023/05/07 09:08:17;;;;;;;3.47;2.17;;;26.50;56.20;;;;;;5073264;28;20483;-67
2023/05/07 09:10:46;;;;;;;3.70;2.20;;;26.70;54.90;;;;;;5073300;28;20486;-67
2023/05/07 09:13:15;;;;;;;3.27;1.80;;;26.90;54.70;;;;;;5072919;28;20472;-67
2023/05/07 09:15:42;;;;;;;3.37;1.80;;;27.10;53.40;;;;;;5072637;28;20938;-67
2023/05/07 09:18:09;;;;;;;4.63;1.70;;;27.20;51.20;;;;;;5072132;28;20467;-68
2023/05/07 09:20:37;;;;;;;3.20;1.90;;;27.30;50.50;;;;;;5072926;28;20440;-67
2023/05/07 09:23:04;;;;;;;2.70;1.60;;;27.40;48.60;;;;;;5073145;28;20479;-67
2023/05/07 09:25:35;;;;;;;3.43;1.90;;;27.50;46.90;;;;;;5071653;28;20513;-67
2023/05/07 09:28:05;;;;;;;2.53;1.60;;;27.40;47.40;;;;;;5072523;28;20459;-67
2023/05/07 09:30:33;;;;;;;2.73;1.80;;;27.50;46.20;;;;;;5072697;28;20494;-67
2023/05/07 09:33:01;;;;;;;2.97;1.47;;;27.50;47.40;;;;;;5072665;28;20545;-68
2023/05/07 09:35:32;;;;;;;2.40;1.53;;;27.70;45.50;;;;;;5073059;28;20440;-67
2023/05/07 09:38:04;;;;;;;2.77;1.60;;;27.70;45.80;;;;;;5073009;28;21060;-67
2023/05/07 09:40:31;;;;;;;7.07;1.83;;;27.80;45.50;;;;;;5072915;28;20475;-67
2023/05/07 09:43:12;;;;;;;3.03;1.60;;;27.90;45.90;;;;;;5072897;28;20921;-67
2023/05/07 09:45:39;;;;;;;2.97;1.87;;;28.10;47.10;;;;;;5072498;28;20443;-67
2023/05/07 09:48:07;;;;;;;3.10;1.50;;;28.20;42.20;;;;;;5072132;28;20880;-67
2023/05/07 09:50:40;;;;;;;9.77;1.70;;;28.30;42.20;;;;;;5072650;28;20479;-67
2023/05/07 09:53:10;;;;;;;4.67;1.63;;;28.40;42.40;;;;;;5072490;28;20432;-68
2023/05/07 09:55:38;;;;;;;2.30;1.37;;;28.60;41.30;;;;;;5072284;28;20946;-68
2023/05/07 09:58:07;;;;;;;3.40;1.50;;;28.60;40.30;;;;;;5072556;28;20531;-68
2023/05/07 10:00:37;;;;;;;2.67;1.57;;;28.70;40.70;;;;;;5072670;28;20876;-68
2023/05/07 10:03:05;;;;;;;3.60;1.90;;;28.60;40.90;;;;;;5072393;28;20444;-67
2023/05/07 10:05:33;;;;;;;2.93;1.80;;;28.60;43.60;;;;;;5072393;28;20785;-67
2023/05/07 10:08:01;;;;;;;2.20;1.40;;;28.70;40.70;;;;;;5072326;28;20514;-68
2023/05/07 10:10:30;;;;;;;3.73;1.70;;;28.70;41.40;;;;;;5072191;28;20511;-67
2023/05/07 10:12:57;;;;;;;2.60;1.50;;;28.70;38.70;;;;;;5072612;28;20827;-68
2023/05/07 10:15:27;;;;;;;2.23;1.40;;;28.70;40.00;;;;;;5072326;28;20472;-68
2023/05/07 10:17:56;;;;;;;4.33;1.80;;;28.70;39.20;;;;;;5071985;28;20845;-68
2023/05/07 10:20:24;;;;;;;3.60;1.53;;;28.70;39.30;;;;;;5072348;28;20487;-68
2023/05/07 10:22:54;;;;;;;2.30;1.30;;;28.70;39.10;;;;;;5072360;28;20778;-68
2023/05/07 10:25:26;;;;;;;2.97;1.80;;;28.70;38.00;;;;;;5072099;28;20938;-68
2023/05/07 10:27:55;;;;;;;3.97;1.80;;;28.80;39.50;;;;;;5072220;28;20562;-68
2023/05/07 10:30:31;;;;;;;3.00;2.07;;;28.90;38.40;;;;;;5072220;28;20439;-68
2023/05/07 10:33:05;;;;;;;2.37;1.53;;;29.10;39.20;;;;;;5071757;28;20479;-67
2023/05/07 10:35:38;;;;;;;2.57;1.80;;;29.20;41.30;;;;;;5072395;28;20463;-68
2023/05/07 10:38:08;;;;;;;2.87;1.63;;;29.30;40.90;;;;;;5075204;28;20436;-68
2023/05/07 10:40:35;;;;;;;3.70;2.17;;;29.50;41.00;;;;;;5075724;28;20498;-68
2023/05/07 10:43:04;;;;;;;2.87;1.70;;;29.70;40.60;;;;;;5075572;28;20475;-68
2023/05/07 10:45:33;;;;;;;3.07;1.77;;;29.90;39.40;;;;;;5075998;28;20440;-68
2023/05/07 10:48:09;;;;;;;2.57;1.77;;;30.00;40.80;;;;;;5075753;28;20566;-68
2023/05/07 10:50:37;;;;;;;3.30;1.87;;;30.00;39.70;;;;;;5075333;28;20526;-69
2023/05/07 10:53:28;;;;;;;5.60;2.00;;;30.10;39.10;;;;;;5075497;28;20473;-68
2023/05/07 10:56:29;;;;;;;4.97;1.60;;;30.20;39.40;;;;;;5075889;28;20458;-68
2023/05/07 10:58:56;;;;;;;5.03;1.57;;;30.30;39.50;;;;;;5075702;28;20913;-68
2023/05/07 11:01:52;;;;;;;2.63;1.53;;;30.30;38.80;;;;;;5075643;28;20448;-68
2023/05/07 11:04:26;;;;;;;2.73;1.40;;;30.30;38.40;;;;;;5075378;28;20432;-68
2023/05/07 11:07:24;;;;;;;2.40;1.60;;;30.20;37.10;;;;;;5075649;28;20440;-68
2023/05/07 11:10:05;;;;;;;3.77;1.80;;;30.30;36.80;;;;;;5075614;28;20515;-67
2023/05/07 11:12:54;;;;;;;4.13;1.33;;;30.20;35.60;;;;;;5075559;28;20492;-68
2023/05/07 11:15:44;;;;;;;2.30;1.20;;;30.30;36.40;;;;;;5075215;28;20464;-67
2023/05/07 11:18:12;;;;;;;2.60;1.37;;;30.40;36.90;;;;;;5074998;28;20460;-68
2023/05/07 11:20:52;;;;;;;2.60;1.57;;;30.40;35.30;;;;;;5075330;28;20432;-68
2023/05/07 11:23:57;;;;;;;2.67;1.33;;;30.40;34.70;;;;;;5075285;28;20493;-68
2023/05/07 11:26:25;;;;;;;4.07;2.07;;;30.40;35.20;;;;;;5074871;28;20479;-68
2023/05/07 11:28:55;;;;;;;2.80;1.47;;;30.50;36.10;;;;;;5075044;28;20487;-68
2023/05/07 11:31:25;;;;;;;2.50;1.70;;;30.50;34.30;;;;;;5074888;28;20938;-68
2023/05/07 11:33:53;;;;;;;2.67;1.40;;;30.40;34.00;;;;;;5074898;28;20531;-68
2023/05/07 11:36:23;;;;;;;2.90;1.30;;;30.30;34.40;;;;;;5074973;28;20452;-69
2023/05/07 11:38:55;;;;;;;2.93;1.37;;;30.20;34.90;;;;;;5075081;28;20431;-68
2023/05/07 11:41:23;;;;;;;2.57;1.57;;;30.10;34.40;;;;;;5074993;28;20436;-67
2023/05/07 11:44:00;;;;;;;2.27;1.67;;;30.20;35.80;;;;;;5074833;28;20501;-68
2023/05/07 11:46:29;;;;;;;2.80;1.83;;;30.30;36.40;;;;;;5074837;28;20562;-68
2023/05/07 11:48:59;;;;;;;3.50;1.60;;;30.40;36.50;;;;;;5073508;28;20488;-68
2023/05/07 11:51:27;;;;;;;3.70;1.53;;;30.40;35.70;;;;;;5074657;28;20522;-68
2023/05/07 11:53:56;;;;;;;3.70;1.87;;;30.30;35.60;;;;;;5074579;28;20827;-68
2023/05/07 11:56:23;;;;;;;3.47;1.97;;;30.30;35.00;;;;;;5074781;28;20482;-68
2023/05/07 11:58:55;;;;;;;2.90;1.73;;;30.20;36.30;;;;;;5074343;28;20474;-68
2023/05/07 12:01:24;;;;;;;3.73;1.57;;;30.10;36.20;;;;;;5074352;28;20468;-68
2023/05/07 12:03:56;;;;;;;2.93;1.60;;;29.90;36.90;;;;;;5074206;28;20853;-68
2023/05/07 12:06:25;;;;;;;2.83;1.60;;;29.80;36.60;;;;;;5074327;28;20486;-68
2023/05/07 12:08:58;;;;;;;2.33;1.43;;;29.60;35.50;;;;;;5074047;28;20480;-68
2023/05/07 12:11:26;;;;;;;2.60;1.60;;;29.50;35.90;;;;;;5074313;28;20519;-68
2023/05/07 12:13:55;;;;;;;2.70;1.70;;;29.40;36.50;;;;;;5074192;28;20444;-68
2023/05/07 12:16:22;;;;;;;3.13;1.77;;;29.30;37.50;;;;;;5073455;28;20475;-68
2023/05/07 12:18:52;;;;;;;3.40;1.67;;;29.10;37.20;;;;;;5034019;28;20430;-67
2023/05/07 12:21:19;;;;;;;5.00;2.23;;;28.80;36.30;;;;;;5034033;28;20897;-67
2023/05/07 12:23:47;;;;;;;3.63;1.47;;;28.40;37.40;;;;;;5033986;28;20438;-68
2023/05/07 12:26:16;;;;;;;3.30;1.63;;;28.20;37.00;;;;;;5034099;28;20466;-68
2023/05/07 12:28:48;;;;;;;3.70;1.70;;;27.90;37.10;;;;;;5033885;28;20505;-68
2023/05/07 12:31:16;;;;;;;2.57;1.70;;;27.60;38.50;;;;;;5033936;28;20473;-68
2023/05/07 12:33:47;;;;;;;2.80;1.67;;;27.40;39.00;;;;;;5033700;28;20438;-68
2023/05/07 12:36:16;;;;;;;2.90;1.90;;;27.10;38.80;;;;;;5033560;28;20524;-68
2023/05/07 12:38:45;;;;;;;4.30;1.60;;;26.90;38.80;;;;;;5033638;28;20440;-68
2023/05/07 12:41:13;;;;;;;2.73;1.40;;;26.70;39.30;;;;;;5033761;28;20442;-68
2023/05/07 12:43:45;;;;;;;3.73;1.77;;;26.50;39.60;;;;;;5033815;28;20434;-68
2023/05/07 12:46:16;;;;;;;2.90;2.00;;;26.30;39.90;;;;;;5033646;28;20524;-68
2023/05/07 12:48:46;;;;;;;3.37;1.90;;;26.20;41.00;;;;;;5033612;28;20531;-67
2023/05/07 12:51:15;;;;;;;3.73;1.90;;;26.10;41.20;;;;;;5033654;28;20446;-68
2023/05/07 12:53:43;;;;;;;5.23;2.10;;;26.00;42.00;;;;;;5033599;28;20465;-68
2023/05/07 12:56:10;;;;;;;3.00;1.80;;;25.90;41.10;;;;;;5033457;28;20433;-68